sensor_id;sensor_type;location;lat;lon;timestamp;P1;durP1;ratioP1;P2;durP2;ratioP2
11829;SDS011;5972;42.134;24.718;2022-10-16T00:00:39;8.35;;;5.43;;
11829;SDS011;5972;42.134;24.718;2022-10-16T00:03:08;11.43;;;7.13;;
11829;SDS011;5972;42.134;24.718;2022-10-16T00:05:37;7.00;;;5.25;;
11829;SDS011;5972;42.134;24.718;2022-10-16T00:08:06;7.65;;;5.47;;
11829;SDS011;5972;42.134;24.718;2022-10-16T00:10:34;8.60;;;5.47;;
11829;SDS011;5972;42.134;24.718;2022-10-16T00:13:01;6.65;;;5.20;;
11829;SDS011;5972;42.134;24.718;2022-10-16T00:15:28;11.27;;;5.60;;
11829;SDS011;5972;42.134;24.718;2022-10-16T00:17:55;8.52;;;5.55;;
11829;SDS011;5972;42.134;24.718;2022-10-16T00:20:22;10.02;;;5.90;;
11829;SDS011;5972;42.134;24.718;2022-10-16T00:22:49;9.13;;;6.28;;
11829;SDS011;5972;42.134;24.718;2022-10-16T00:25:16;9.25;;;5.70;;
11829;SDS011;5972;42.134;24.718;2022-10-16T00:27:44;8.32;;;5.18;;
11829;SDS011;5972;42.134;24.718;2022-10-16T00:30:11;9.00;;;5.75;;
11829;SDS011;5972;42.134;24.718;2022-10-16T00:32:38;7.45;;;5.28;;
11829;SDS011;5972;42.134;24.718;2022-10-16T00:35:05;7.25;;;5.53;;
11829;SDS011;5972;42.134;24.718;2022-10-16T00:37:32;6.68;;;5.47;;
11829;SDS011;5972;42.134;24.718;2022-10-16T00:39:59;11.13;;;5.63;;
11829;SDS011;5972;42.134;24.718;2022-10-16T00:42:26;8.98;;;5.78;;
11829;SDS011;5972;42.134;24.718;2022-10-16T00:44:54;9.70;;;6.03;;
11829;SDS011;5972;42.134;24.718;2022-10-16T00:47:24;6.47;;;5.82;;
11829;SDS011;5972;42.134;24.718;2022-10-16T00:49:56;7.10;;;5.70;;
11829;SDS011;5972;42.134;24.718;2022-10-16T00:52:27;8.43;;;5.65;;
11829;SDS011;5972;42.134;24.718;2022-10-16T00:54:54;8.15;;;5.88;;
11829;SDS011;5972;42.134;24.718;2022-10-16T00:57:23;8.32;;;5.43;;
11829;SDS011;5972;42.134;24.718;2022-10-16T00:59:50;7.65;;;5.80;;
11829;SDS011;5972;42.134;24.718;2022-10-16T01:02:19;6.82;;;5.35;;
11829;SDS011;5972;42.134;24.718;2022-10-16T01:04:46;8.57;;;5.13;;
11829;SDS011;5972;42.134;24.718;2022-10-16T01:07:17;6.55;;;5.57;;
11829;SDS011;5972;42.134;24.718;2022-10-16T01:09:54;7.20;;;5.38;;
11829;SDS011;5972;42.134;24.718;2022-10-16T01:12:30;10.52;;;6.35;;
11829;SDS011;5972;42.134;24.718;2022-10-16T01:15:06;11.63;;;5.13;;
11829;SDS011;5972;42.134;24.718;2022-10-16T01:17:41;8.27;;;6.03;;
11829;SDS011;5972;42.134;24.718;2022-10-16T01:20:14;11.70;;;6.27;;
11829;SDS011;5972;42.134;24.718;2022-10-16T01:22:50;7.78;;;5.85;;
11829;SDS011;5972;42.134;24.718;2022-10-16T01:25:30;8.82;;;6.03;;
11829;SDS011;5972;42.134;24.718;2022-10-16T01:28:07;8.05;;;5.43;;
11829;SDS011;5972;42.134;24.718;2022-10-16T01:30:38;7.28;;;6.00;;
11829;SDS011;5972;42.134;24.718;2022-10-16T01:33:08;9.73;;;6.53;;
11829;SDS011;5972;42.134;24.718;2022-10-16T01:35:41;13.23;;;6.90;;
11829;SDS011;5972;42.134;24.718;2022-10-16T01:38:14;12.43;;;6.50;;
11829;SDS011;5972;42.134;24.718;2022-10-16T01:40:46;9.13;;;6.33;;
11829;SDS011;5972;42.134;24.718;2022-10-16T01:43:19;9.30;;;6.43;;
11829;SDS011;5972;42.134;24.718;2022-10-16T01:45:49;11.63;;;6.30;;
11829;SDS011;5972;42.134;24.718;2022-10-16T01:48:17;10.35;;;6.93;;
11829;SDS011;5972;42.134;24.718;2022-10-16T01:50:48;10.27;;;6.93;;
11829;SDS011;5972;42.134;24.718;2022-10-16T01:53:20;11.27;;;7.27;;
11829;SDS011;5972;42.134;24.718;2022-10-16T01:55:48;10.20;;;7.57;;
11829;SDS011;5972;42.134;24.718;2022-10-16T01:58:18;11.30;;;6.87;;
11829;SDS011;5972;42.134;24.718;2022-10-16T02:00:45;9.03;;;7.30;;
11829;SDS011;5972;42.134;24.718;2022-10-16T02:03:14;10.57;;;7.30;;
11829;SDS011;5972;42.134;24.718;2022-10-16T02:05:45;12.53;;;7.10;;
11829;SDS011;5972;42.134;24.718;2022-10-16T02:08:13;9.98;;;6.40;;
11829;SDS011;5972;42.134;24.718;2022-10-16T02:10:40;10.03;;;6.57;;
11829;SDS011;5972;42.134;24.718;2022-10-16T02:13:08;9.87;;;7.20;;
11829;SDS011;5972;42.134;24.718;2022-10-16T02:15:39;12.07;;;7.43;;
11829;SDS011;5972;42.134;24.718;2022-10-16T02:18:06;9.90;;;6.97;;
11829;SDS011;5972;42.134;24.718;2022-10-16T02:20:36;13.93;;;7.27;;
11829;SDS011;5972;42.134;24.718;2022-10-16T02:23:11;12.37;;;8.13;;
11829;SDS011;5972;42.134;24.718;2022-10-16T02:25:41;12.27;;;8.10;;
11829;SDS011;5972;42.134;24.718;2022-10-16T02:28:13;12.73;;;7.87;;
11829;SDS011;5972;42.134;24.718;2022-10-16T02:30:46;8.93;;;7.87;;
11829;SDS011;5972;42.134;24.718;2022-10-16T02:33:17;10.33;;;7.67;;
11829;SDS011;5972;42.134;24.718;2022-10-16T02:35:47;8.50;;;7.13;;
11829;SDS011;5972;42.134;24.718;2022-10-16T02:38:17;12.13;;;8.13;;
11829;SDS011;5972;42.134;24.718;2022-10-16T02:40:45;14.93;;;8.23;;
11829;SDS011;5972;42.134;24.718;2022-10-16T02:43:12;11.33;;;8.90;;
11829;SDS011;5972;42.134;24.718;2022-10-16T02:45:39;12.50;;;8.33;;
11829;SDS011;5972;42.134;24.718;2022-10-16T02:48:07;15.90;;;8.53;;
11829;SDS011;5972;42.134;24.718;2022-10-16T02:50:34;16.80;;;9.67;;
11829;SDS011;5972;42.134;24.718;2022-10-16T02:53:01;12.03;;;9.57;;
11829;SDS011;5972;42.134;24.718;2022-10-16T02:55:28;15.03;;;9.93;;
11829;SDS011;5972;42.134;24.718;2022-10-16T02:57:55;13.57;;;9.00;;
11829;SDS011;5972;42.134;24.718;2022-10-16T03:00:22;12.70;;;9.60;;
11829;SDS011;5972;42.134;24.718;2022-10-16T03:02:49;16.00;;;9.10;;
11829;SDS011;5972;42.134;24.718;2022-10-16T03:05:17;11.40;;;9.27;;
11829;SDS011;5972;42.134;24.718;2022-10-16T03:07:44;13.53;;;9.27;;
11829;SDS011;5972;42.134;24.718;2022-10-16T03:10:11;16.53;;;8.83;;
11829;SDS011;5972;42.134;24.718;2022-10-16T03:12:38;12.13;;;8.50;;
11829;SDS011;5972;42.134;24.718;2022-10-16T03:15:05;9.93;;;8.17;;
11829;SDS011;5972;42.134;24.718;2022-10-16T03:17:32;13.27;;;7.90;;
11829;SDS011;5972;42.134;24.718;2022-10-16T03:19:59;10.67;;;7.50;;
11829;SDS011;5972;42.134;24.718;2022-10-16T03:22:30;9.73;;;7.47;;
11829;SDS011;5972;42.134;24.718;2022-10-16T03:24:57;9.40;;;7.40;;
11829;SDS011;5972;42.134;24.718;2022-10-16T03:27:24;12.87;;;7.43;;
11829;SDS011;5972;42.134;24.718;2022-10-16T03:29:50;7.38;;;6.53;;
11829;SDS011;5972;42.134;24.718;2022-10-16T03:32:17;9.80;;;7.20;;
11829;SDS011;5972;42.134;24.718;2022-10-16T03:34:45;9.00;;;7.07;;
11829;SDS011;5972;42.134;24.718;2022-10-16T03:37:12;11.70;;;7.40;;
11829;SDS011;5972;42.134;24.718;2022-10-16T03:39:40;8.37;;;7.53;;
11829;SDS011;5972;42.134;24.718;2022-10-16T03:42:07;12.83;;;7.80;;
11829;SDS011;5972;42.134;24.718;2022-10-16T03:44:33;10.57;;;7.87;;
11829;SDS011;5972;42.134;24.718;2022-10-16T03:47:00;9.93;;;7.73;;
11829;SDS011;5972;42.134;24.718;2022-10-16T03:49:27;9.80;;;7.40;;
11829;SDS011;5972;42.134;24.718;2022-10-16T03:51:54;12.97;;;8.03;;
11829;SDS011;5972;42.134;24.718;2022-10-16T03:54:21;10.33;;;7.93;;
11829;SDS011;5972;42.134;24.718;2022-10-16T03:56:49;11.87;;;7.53;;
11829;SDS011;5972;42.134;24.718;2022-10-16T03:59:16;8.87;;;7.77;;
11829;SDS011;5972;42.134;24.718;2022-10-16T04:01:43;11.20;;;8.30;;
11829;SDS011;5972;42.134;24.718;2022-10-16T04:04:09;11.77;;;7.77;;
11829;SDS011;5972;42.134;24.718;2022-10-16T04:06:36;13.10;;;8.73;;
11829;SDS011;5972;42.134;24.718;2022-10-16T04:09:03;12.03;;;8.53;;
11829;SDS011;5972;42.134;24.718;2022-10-16T04:11:30;9.97;;;7.60;;
11829;SDS011;5972;42.134;24.718;2022-10-16T04:13:58;10.70;;;7.90;;
11829;SDS011;5972;42.134;24.718;2022-10-16T04:16:26;13.27;;;8.10;;
11829;SDS011;5972;42.134;24.718;2022-10-16T04:18:52;11.33;;;8.23;;
11829;SDS011;5972;42.134;24.718;2022-10-16T04:21:19;12.53;;;8.23;;
11829;SDS011;5972;42.134;24.718;2022-10-16T04:23:46;8.90;;;7.83;;
11829;SDS011;5972;42.134;24.718;2022-10-16T04:26:13;10.00;;;8.30;;
11829;SDS011;5972;42.134;24.718;2022-10-16T04:28:40;11.23;;;9.00;;
11829;SDS011;5972;42.134;24.718;2022-10-16T04:31:08;12.67;;;8.27;;
11829;SDS011;5972;42.134;24.718;2022-10-16T04:33:35;12.07;;;8.27;;
11829;SDS011;5972;42.134;24.718;2022-10-16T04:36:02;10.90;;;8.00;;
11829;SDS011;5972;42.134;24.718;2022-10-16T04:38:30;12.10;;;8.40;;
11829;SDS011;5972;42.134;24.718;2022-10-16T04:40:57;16.20;;;8.87;;
11829;SDS011;5972;42.134;24.718;2022-10-16T04:43:24;11.07;;;7.30;;
11829;SDS011;5972;42.134;24.718;2022-10-16T04:45:51;8.50;;;7.63;;
11829;SDS011;5972;42.134;24.718;2022-10-16T04:48:21;10.57;;;7.90;;
11829;SDS011;5972;42.134;24.718;2022-10-16T04:50:48;10.47;;;7.83;;
11829;SDS011;5972;42.134;24.718;2022-10-16T04:53:15;9.63;;;7.87;;
11829;SDS011;5972;42.134;24.718;2022-10-16T04:55:42;11.03;;;8.40;;
11829;SDS011;5972;42.134;24.718;2022-10-16T04:58:09;13.87;;;8.50;;
11829;SDS011;5972;42.134;24.718;2022-10-16T05:00:36;11.87;;;8.63;;
11829;SDS011;5972;42.134;24.718;2022-10-16T05:03:03;11.80;;;8.43;;
11829;SDS011;5972;42.134;24.718;2022-10-16T05:05:34;13.17;;;8.57;;
11829;SDS011;5972;42.134;24.718;2022-10-16T05:08:01;10.80;;;8.53;;
11829;SDS011;5972;42.134;24.718;2022-10-16T05:10:28;12.57;;;8.20;;
11829;SDS011;5972;42.134;24.718;2022-10-16T05:12:55;14.33;;;8.30;;
11829;SDS011;5972;42.134;24.718;2022-10-16T05:15:21;14.73;;;8.57;;
11829;SDS011;5972;42.134;24.718;2022-10-16T05:17:51;10.50;;;8.20;;
11829;SDS011;5972;42.134;24.718;2022-10-16T05:20:19;10.73;;;7.83;;
11829;SDS011;5972;42.134;24.718;2022-10-16T05:22:47;15.40;;;8.30;;
11829;SDS011;5972;42.134;24.718;2022-10-16T05:25:14;10.27;;;7.60;;
11829;SDS011;5972;42.134;24.718;2022-10-16T05:27:41;9.67;;;7.40;;
11829;SDS011;5972;42.134;24.718;2022-10-16T05:30:08;9.80;;;6.43;;
11829;SDS011;5972;42.134;24.718;2022-10-16T05:32:35;7.22;;;6.03;;
11829;SDS011;5972;42.134;24.718;2022-10-16T05:35:02;9.27;;;6.13;;
11829;SDS011;5972;42.134;24.718;2022-10-16T05:37:29;7.53;;;5.78;;
11829;SDS011;5972;42.134;24.718;2022-10-16T05:39:58;9.52;;;5.40;;
11829;SDS011;5972;42.134;24.718;2022-10-16T05:42:24;8.00;;;5.15;;
11829;SDS011;5972;42.134;24.718;2022-10-16T05:44:51;7.72;;;5.00;;
11829;SDS011;5972;42.134;24.718;2022-10-16T05:47:18;8.30;;;5.57;;
11829;SDS011;5972;42.134;24.718;2022-10-16T05:49:46;7.72;;;5.85;;
11829;SDS011;5972;42.134;24.718;2022-10-16T05:52:13;9.40;;;6.50;;
11829;SDS011;5972;42.134;24.718;2022-10-16T05:54:39;6.35;;;5.13;;
11829;SDS011;5972;42.134;24.718;2022-10-16T05:57:08;13.93;;;8.90;;
11829;SDS011;5972;42.134;24.718;2022-10-16T05:59:34;9.27;;;7.20;;
11829;SDS011;5972;42.134;24.718;2022-10-16T06:02:01;7.85;;;6.07;;
11829;SDS011;5972;42.134;24.718;2022-10-16T06:04:28;9.50;;;6.00;;
11829;SDS011;5972;42.134;24.718;2022-10-16T06:06:57;8.35;;;5.43;;
11829;SDS011;5972;42.134;24.718;2022-10-16T06:09:26;13.30;;;5.57;;
11829;SDS011;5972;42.134;24.718;2022-10-16T06:11:53;9.38;;;6.03;;
11829;SDS011;5972;42.134;24.718;2022-10-16T06:14:21;10.90;;;6.50;;
11829;SDS011;5972;42.134;24.718;2022-10-16T06:16:48;11.35;;;5.60;;
11829;SDS011;5972;42.134;24.718;2022-10-16T06:19:15;7.03;;;5.43;;
11829;SDS011;5972;42.134;24.718;2022-10-16T06:21:42;6.30;;;5.25;;
11829;SDS011;5972;42.134;24.718;2022-10-16T06:24:09;7.40;;;5.25;;
11829;SDS011;5972;42.134;24.718;2022-10-16T06:26:37;8.00;;;5.10;;
11829;SDS011;5972;42.134;24.718;2022-10-16T06:29:04;8.95;;;4.88;;
11829;SDS011;5972;42.134;24.718;2022-10-16T06:31:32;9.00;;;5.20;;
11829;SDS011;5972;42.134;24.718;2022-10-16T06:33:59;7.05;;;4.63;;
11829;SDS011;5972;42.134;24.718;2022-10-16T06:36:27;6.40;;;4.90;;
11829;SDS011;5972;42.134;24.718;2022-10-16T06:38:54;7.72;;;5.32;;
11829;SDS011;5972;42.134;24.718;2022-10-16T06:41:21;8.10;;;4.78;;
11829;SDS011;5972;42.134;24.718;2022-10-16T06:43:49;5.20;;;4.38;;
11829;SDS011;5972;42.134;24.718;2022-10-16T06:46:18;4.93;;;4.32;;
11829;SDS011;5972;42.134;24.718;2022-10-16T06:48:48;5.45;;;4.80;;
11829;SDS011;5972;42.134;24.718;2022-10-16T06:51:15;5.35;;;4.60;;
11829;SDS011;5972;42.134;24.718;2022-10-16T06:53:43;11.63;;;4.85;;
11829;SDS011;5972;42.134;24.718;2022-10-16T06:56:12;4.90;;;4.40;;
11829;SDS011;5972;42.134;24.718;2022-10-16T06:58:41;6.70;;;4.57;;
11829;SDS011;5972;42.134;24.718;2022-10-16T07:01:08;6.40;;;4.35;;
11829;SDS011;5972;42.134;24.718;2022-10-16T07:03:37;7.10;;;4.75;;
11829;SDS011;5972;42.134;24.718;2022-10-16T07:06:06;7.25;;;4.75;;
11829;SDS011;5972;42.134;24.718;2022-10-16T07:08:34;7.30;;;5.03;;
11829;SDS011;5972;42.134;24.718;2022-10-16T07:11:03;6.93;;;4.90;;
11829;SDS011;5972;42.134;24.718;2022-10-16T07:13:32;6.32;;;4.93;;
11829;SDS011;5972;42.134;24.718;2022-10-16T07:16:03;8.98;;;4.78;;
11829;SDS011;5972;42.134;24.718;2022-10-16T07:18:30;6.82;;;4.80;;
11829;SDS011;5972;42.134;24.718;2022-10-16T07:21:02;10.20;;;5.75;;
11829;SDS011;5972;42.134;24.718;2022-10-16T07:23:31;5.60;;;5.00;;
11829;SDS011;5972;42.134;24.718;2022-10-16T07:25:58;6.07;;;4.95;;
11829;SDS011;5972;42.134;24.718;2022-10-16T07:28:25;5.57;;;4.63;;
11829;SDS011;5972;42.134;24.718;2022-10-16T07:30:52;7.38;;;4.47;;
11829;SDS011;5972;42.134;24.718;2022-10-16T07:33:19;5.88;;;5.00;;
11829;SDS011;5972;42.134;24.718;2022-10-16T07:35:49;5.50;;;4.45;;
11829;SDS011;5972;42.134;24.718;2022-10-16T07:38:17;6.50;;;4.28;;
11829;SDS011;5972;42.134;24.718;2022-10-16T07:40:46;9.48;;;4.82;;
11829;SDS011;5972;42.134;24.718;2022-10-16T07:43:13;5.50;;;4.38;;
11829;SDS011;5972;42.134;24.718;2022-10-16T07:45:49;6.72;;;4.63;;
11829;SDS011;5972;42.134;24.718;2022-10-16T07:48:17;5.05;;;4.32;;
11829;SDS011;5972;42.134;24.718;2022-10-16T07:50:44;7.70;;;4.30;;
11829;SDS011;5972;42.134;24.718;2022-10-16T07:53:11;5.28;;;4.32;;
11829;SDS011;5972;42.134;24.718;2022-10-16T07:55:38;5.68;;;4.20;;
11829;SDS011;5972;42.134;24.718;2022-10-16T07:58:07;5.00;;;4.53;;
11829;SDS011;5972;42.134;24.718;2022-10-16T08:00:35;6.78;;;4.20;;
11829;SDS011;5972;42.134;24.718;2022-10-16T08:03:02;4.88;;;4.18;;
11829;SDS011;5972;42.134;24.718;2022-10-16T08:05:31;6.80;;;4.13;;
11829;SDS011;5972;42.134;24.718;2022-10-16T08:07:59;8.00;;;4.60;;
11829;SDS011;5972;42.134;24.718;2022-10-16T08:10:27;5.43;;;4.65;;
11829;SDS011;5972;42.134;24.718;2022-10-16T08:12:54;5.13;;;4.03;;
11829;SDS011;5972;42.134;24.718;2022-10-16T08:15:23;5.32;;;4.45;;
11829;SDS011;5972;42.134;24.718;2022-10-16T08:17:56;5.50;;;4.35;;
11829;SDS011;5972;42.134;24.718;2022-10-16T08:20:24;5.35;;;4.60;;
11829;SDS011;5972;42.134;24.718;2022-10-16T08:22:52;7.30;;;4.15;;
11829;SDS011;5972;42.134;24.718;2022-10-16T08:25:19;13.60;;;4.53;;
11829;SDS011;5972;42.134;24.718;2022-10-16T08:27:46;9.00;;;4.30;;
11829;SDS011;5972;42.134;24.718;2022-10-16T08:30:13;5.78;;;4.38;;
11829;SDS011;5972;42.134;24.718;2022-10-16T08:32:42;4.53;;;4.13;;
11829;SDS011;5972;42.134;24.718;2022-10-16T08:35:09;6.95;;;4.60;;
11829;SDS011;5972;42.134;24.718;2022-10-16T08:37:36;7.47;;;4.35;;
11829;SDS011;5972;42.134;24.718;2022-10-16T08:40:04;4.72;;;4.07;;
11829;SDS011;5972;42.134;24.718;2022-10-16T08:42:40;4.78;;;4.00;;
11829;SDS011;5972;42.134;24.718;2022-10-16T08:45:26;5.53;;;4.43;;
11829;SDS011;5972;42.134;24.718;2022-10-16T08:48:08;6.13;;;3.90;;
11829;SDS011;5972;42.134;24.718;2022-10-16T08:50:44;4.50;;;4.10;;
11829;SDS011;5972;42.134;24.718;2022-10-16T08:53:14;8.77;;;4.15;;
11829;SDS011;5972;42.134;24.718;2022-10-16T08:55:45;4.95;;;4.13;;
11829;SDS011;5972;42.134;24.718;2022-10-16T08:58:16;7.32;;;4.10;;
11829;SDS011;5972;42.134;24.718;2022-10-16T09:00:44;6.63;;;3.88;;
11829;SDS011;5972;42.134;24.718;2022-10-16T09:03:16;4.93;;;4.00;;
11829;SDS011;5972;42.134;24.718;2022-10-16T09:06:10;7.50;;;4.80;;
11829;SDS011;5972;42.134;24.718;2022-10-16T09:08:52;10.10;;;3.90;;
11829;SDS011;5972;42.134;24.718;2022-10-16T09:11:32;5.72;;;4.15;;
11829;SDS011;5972;42.134;24.718;2022-10-16T09:14:11;5.72;;;4.28;;
11829;SDS011;5972;42.134;24.718;2022-10-16T09:17:03;6.10;;;3.88;;
11829;SDS011;5972;42.134;24.718;2022-10-16T09:19:48;6.20;;;4.03;;
11829;SDS011;5972;42.134;24.718;2022-10-16T09:22:20;5.13;;;3.88;;
11829;SDS011;5972;42.134;24.718;2022-10-16T09:24:51;5.72;;;3.83;;
11829;SDS011;5972;42.134;24.718;2022-10-16T09:27:18;5.93;;;4.00;;
11829;SDS011;5972;42.134;24.718;2022-10-16T09:29:45;6.40;;;3.97;;
11829;SDS011;5972;42.134;24.718;2022-10-16T09:32:12;5.35;;;4.03;;
11829;SDS011;5972;42.134;24.718;2022-10-16T09:34:43;6.07;;;3.95;;
11829;SDS011;5972;42.134;24.718;2022-10-16T09:37:16;3.88;;;3.40;;
11829;SDS011;5972;42.134;24.718;2022-10-16T09:39:45;4.68;;;3.30;;
11829;SDS011;5972;42.134;24.718;2022-10-16T09:42:14;7.57;;;3.80;;
11829;SDS011;5972;42.134;24.718;2022-10-16T09:44:46;4.32;;;3.70;;
11829;SDS011;5972;42.134;24.718;2022-10-16T09:47:15;6.55;;;3.83;;
11829;SDS011;5972;42.134;24.718;2022-10-16T09:49:51;4.95;;;3.65;;
11829;SDS011;5972;42.134;24.718;2022-10-16T09:52:20;4.03;;;3.70;;
11829;SDS011;5972;42.134;24.718;2022-10-16T09:54:49;4.82;;;3.78;;
11829;SDS011;5972;42.134;24.718;2022-10-16T09:57:17;7.53;;;3.25;;
11829;SDS011;5972;42.134;24.718;2022-10-16T09:59:47;6.00;;;3.47;;
11829;SDS011;5972;42.134;24.718;2022-10-16T10:02:16;6.43;;;3.83;;
11829;SDS011;5972;42.134;24.718;2022-10-16T10:04:47;9.45;;;3.67;;
11829;SDS011;5972;42.134;24.718;2022-10-16T10:07:23;5.25;;;3.60;;
11829;SDS011;5972;42.134;24.718;2022-10-16T10:09:53;5.63;;;3.65;;
11829;SDS011;5972;42.134;24.718;2022-10-16T10:12:23;7.63;;;3.63;;
11829;SDS011;5972;42.134;24.718;2022-10-16T10:14:52;4.90;;;3.28;;
11829;SDS011;5972;42.134;24.718;2022-10-16T10:17:20;5.53;;;3.58;;
11829;SDS011;5972;42.134;24.718;2022-10-16T10:19:50;4.72;;;3.55;;
11829;SDS011;5972;42.134;24.718;2022-10-16T10:22:24;5.07;;;3.42;;
11829;SDS011;5972;42.134;24.718;2022-10-16T10:25:18;3.38;;;3.08;;
11829;SDS011;5972;42.134;24.718;2022-10-16T10:27:53;3.92;;;3.50;;
11829;SDS011;5972;42.134;24.718;2022-10-16T10:30:37;3.35;;;3.05;;
11829;SDS011;5972;42.134;24.718;2022-10-16T10:33:14;6.72;;;3.28;;
11829;SDS011;5972;42.134;24.718;2022-10-16T10:35:49;4.20;;;3.47;;
11829;SDS011;5972;42.134;24.718;2022-10-16T10:38:28;3.50;;;3.08;;
11829;SDS011;5972;42.134;24.718;2022-10-16T10:41:05;3.67;;;3.30;;
11829;SDS011;5972;42.134;24.718;2022-10-16T10:44:02;5.15;;;3.10;;
11829;SDS011;5972;42.134;24.718;2022-10-16T10:46:41;3.30;;;2.83;;
11829;SDS011;5972;42.134;24.718;2022-10-16T10:49:16;5.47;;;2.83;;
11829;SDS011;5972;42.134;24.718;2022-10-16T10:52:08;4.60;;;2.97;;
11829;SDS011;5972;42.134;24.718;2022-10-16T10:54:49;4.55;;;2.97;;
11829;SDS011;5972;42.134;24.718;2022-10-16T10:57:25;3.78;;;2.97;;
11829;SDS011;5972;42.134;24.718;2022-10-16T11:00:11;6.07;;;3.03;;
11829;SDS011;5972;42.134;24.718;2022-10-16T11:02:45;4.18;;;3.22;;
11829;SDS011;5972;42.134;24.718;2022-10-16T11:05:28;3.70;;;2.80;;
11829;SDS011;5972;42.134;24.718;2022-10-16T11:08:06;4.72;;;2.97;;
11829;SDS011;5972;42.134;24.718;2022-10-16T11:10:40;4.38;;;3.05;;
11829;SDS011;5972;42.134;24.718;2022-10-16T11:13:16;3.05;;;2.80;;
11829;SDS011;5972;42.134;24.718;2022-10-16T11:15:48;5.05;;;3.17;;
11829;SDS011;5972;42.134;24.718;2022-10-16T11:18:20;3.40;;;3.00;;
11829;SDS011;5972;42.134;24.718;2022-10-16T11:20:52;3.00;;;2.70;;
11829;SDS011;5972;42.134;24.718;2022-10-16T11:23:23;4.85;;;2.85;;
11829;SDS011;5972;42.134;24.718;2022-10-16T11:25:56;3.53;;;3.20;;
11829;SDS011;5972;42.134;24.718;2022-10-16T11:28:27;4.75;;;3.60;;
11829;SDS011;5972;42.134;24.718;2022-10-16T11:31:00;4.72;;;3.40;;
11829;SDS011;5972;42.134;24.718;2022-10-16T11:33:35;4.25;;;3.67;;
11829;SDS011;5972;42.134;24.718;2022-10-16T11:36:08;5.63;;;3.50;;
11829;SDS011;5972;42.134;24.718;2022-10-16T11:38:42;7.45;;;3.60;;
11829;SDS011;5972;42.134;24.718;2022-10-16T11:41:17;6.40;;;3.72;;
11829;SDS011;5972;42.134;24.718;2022-10-16T11:43:50;6.75;;;3.67;;
11829;SDS011;5972;42.134;24.718;2022-10-16T11:46:22;8.45;;;3.25;;
11829;SDS011;5972;42.134;24.718;2022-10-16T11:48:53;5.78;;;3.20;;
11829;SDS011;5972;42.134;24.718;2022-10-16T11:51:25;6.65;;;3.20;;
11829;SDS011;5972;42.134;24.718;2022-10-16T11:54:02;5.32;;;3.42;;
11829;SDS011;5972;42.134;24.718;2022-10-16T11:56:37;5.93;;;3.28;;
11829;SDS011;5972;42.134;24.718;2022-10-16T11:59:07;4.78;;;3.20;;
11829;SDS011;5972;42.134;24.718;2022-10-16T12:01:45;4.47;;;3.25;;
11829;SDS011;5972;42.134;24.718;2022-10-16T12:04:18;5.57;;;3.22;;
11829;SDS011;5972;42.134;24.718;2022-10-16T12:06:55;4.63;;;3.20;;
11829;SDS011;5972;42.134;24.718;2022-10-16T12:09:29;3.67;;;2.90;;
11829;SDS011;5972;42.134;24.718;2022-10-16T12:11:58;7.65;;;3.40;;
11829;SDS011;5972;42.134;24.718;2022-10-16T12:14:36;3.33;;;2.92;;
11829;SDS011;5972;42.134;24.718;2022-10-16T12:19:57;5.57;;;3.20;;
11829;SDS011;5972;42.134;24.718;2022-10-16T12:22:26;5.53;;;3.30;;
11829;SDS011;5972;42.134;24.718;2022-10-16T12:24:56;4.88;;;3.03;;
11829;SDS011;5972;42.134;24.718;2022-10-16T12:27:27;4.35;;;3.20;;
11829;SDS011;5972;42.134;24.718;2022-10-16T12:29:56;6.82;;;3.47;;
11829;SDS011;5972;42.134;24.718;2022-10-16T12:32:27;4.10;;;3.03;;
11829;SDS011;5972;42.134;24.718;2022-10-16T12:34:56;3.15;;;2.85;;
11829;SDS011;5972;42.134;24.718;2022-10-16T12:37:25;4.32;;;3.10;;
11829;SDS011;5972;42.134;24.718;2022-10-16T12:39:54;3.80;;;3.40;;
11829;SDS011;5972;42.134;24.718;2022-10-16T12:42:24;4.40;;;3.08;;
11829;SDS011;5972;42.134;24.718;2022-10-16T12:45:00;9.15;;;3.60;;
11829;SDS011;5972;42.134;24.718;2022-10-16T12:47:37;8.30;;;3.25;;
11829;SDS011;5972;42.134;24.718;2022-10-16T12:50:26;6.25;;;3.53;;
11829;SDS011;5972;42.134;24.718;2022-10-16T12:52:58;4.28;;;3.38;;
11829;SDS011;5972;42.134;24.718;2022-10-16T12:55:26;6.03;;;2.95;;
11829;SDS011;5972;42.134;24.718;2022-10-16T13:00:54;5.47;;;3.80;;
11829;SDS011;5972;42.134;24.718;2022-10-16T13:06:26;5.82;;;3.40;;
11829;SDS011;5972;42.134;24.718;2022-10-16T13:09:07;5.93;;;3.42;;
11829;SDS011;5972;42.134;24.718;2022-10-16T13:11:58;4.28;;;3.63;;
11829;SDS011;5972;42.134;24.718;2022-10-16T13:14:42;6.07;;;3.50;;
11829;SDS011;5972;42.134;24.718;2022-10-16T13:17:28;4.55;;;3.35;;
11829;SDS011;5972;42.134;24.718;2022-10-16T13:20:00;6.63;;;3.80;;
11829;SDS011;5972;42.134;24.718;2022-10-16T13:22:37;5.57;;;3.83;;
11829;SDS011;5972;42.134;24.718;2022-10-16T13:25:17;4.43;;;3.67;;
11829;SDS011;5972;42.134;24.718;2022-10-16T13:27:52;6.32;;;3.72;;
11829;SDS011;5972;42.134;24.718;2022-10-16T13:30:23;4.18;;;3.78;;
11829;SDS011;5972;42.134;24.718;2022-10-16T13:32:55;5.05;;;3.92;;
11829;SDS011;5972;42.134;24.718;2022-10-16T13:35:27;4.82;;;3.65;;
11829;SDS011;5972;42.134;24.718;2022-10-16T13:38:05;8.13;;;3.95;;
11829;SDS011;5972;42.134;24.718;2022-10-16T13:40:47;5.95;;;3.80;;
11829;SDS011;5972;42.134;24.718;2022-10-16T13:43:16;4.13;;;3.72;;
11829;SDS011;5972;42.134;24.718;2022-10-16T13:45:53;4.32;;;3.45;;
11829;SDS011;5972;42.134;24.718;2022-10-16T13:48:26;5.43;;;3.45;;
11829;SDS011;5972;42.134;24.718;2022-10-16T13:51:01;5.70;;;3.80;;
11829;SDS011;5972;42.134;24.718;2022-10-16T13:53:32;5.45;;;4.13;;
11829;SDS011;5972;42.134;24.718;2022-10-16T13:56:00;5.35;;;4.05;;
11829;SDS011;5972;42.134;24.718;2022-10-16T13:58:29;6.18;;;3.72;;
11829;SDS011;5972;42.134;24.718;2022-10-16T14:00:58;6.95;;;3.95;;
11829;SDS011;5972;42.134;24.718;2022-10-16T14:03:28;6.22;;;3.30;;
11829;SDS011;5972;42.134;24.718;2022-10-16T14:06:01;4.65;;;3.45;;
11829;SDS011;5972;42.134;24.718;2022-10-16T14:08:30;6.18;;;3.60;;
11829;SDS011;5972;42.134;24.718;2022-10-16T14:10:58;4.38;;;3.80;;
11829;SDS011;5972;42.134;24.718;2022-10-16T14:13:29;10.00;;;3.85;;
11829;SDS011;5972;42.134;24.718;2022-10-16T14:16:02;8.13;;;4.30;;
11829;SDS011;5972;42.134;24.718;2022-10-16T14:18:33;7.80;;;4.30;;
11829;SDS011;5972;42.134;24.718;2022-10-16T14:21:05;4.68;;;3.90;;
11829;SDS011;5972;42.134;24.718;2022-10-16T14:23:35;6.15;;;3.95;;
11829;SDS011;5972;42.134;24.718;2022-10-16T14:29:00;5.60;;;3.55;;
11829;SDS011;5972;42.134;24.718;2022-10-16T14:31:31;10.48;;;4.03;;
11829;SDS011;5972;42.134;24.718;2022-10-16T14:34:01;9.13;;;3.63;;
11829;SDS011;5972;42.134;24.718;2022-10-16T14:36:28;6.35;;;3.80;;
11829;SDS011;5972;42.134;24.718;2022-10-16T14:39:00;6.10;;;3.72;;
11829;SDS011;5972;42.134;24.718;2022-10-16T14:41:29;6.95;;;4.05;;
11829;SDS011;5972;42.134;24.718;2022-10-16T14:43:58;8.98;;;4.15;;
11829;SDS011;5972;42.134;24.718;2022-10-16T14:46:31;5.72;;;3.83;;
11829;SDS011;5972;42.134;24.718;2022-10-16T14:49:02;6.68;;;3.90;;
11829;SDS011;5972;42.134;24.718;2022-10-16T14:51:31;9.77;;;3.50;;
11829;SDS011;5972;42.134;24.718;2022-10-16T14:53:58;4.80;;;3.22;;
11829;SDS011;5972;42.134;24.718;2022-10-16T14:56:28;7.22;;;3.58;;
11829;SDS011;5972;42.134;24.718;2022-10-16T14:58:56;7.32;;;3.90;;
11829;SDS011;5972;42.134;24.718;2022-10-16T15:01:23;7.13;;;4.50;;
11829;SDS011;5972;42.134;24.718;2022-10-16T15:03:52;4.70;;;3.90;;
11829;SDS011;5972;42.134;24.718;2022-10-16T15:06:20;10.90;;;4.50;;
11829;SDS011;5972;42.134;24.718;2022-10-16T15:08:47;5.50;;;4.18;;
11829;SDS011;5972;42.134;24.718;2022-10-16T15:11:15;3.95;;;3.58;;
11829;SDS011;5972;42.134;24.718;2022-10-16T15:13:44;5.88;;;4.10;;
11829;SDS011;5972;42.134;24.718;2022-10-16T15:16:12;8.10;;;4.05;;